createdAt,value
2022-11-16T00:01:55.239Z,98011.25
2022-11-16T00:04:22.244Z,98003.28
2022-11-16T00:06:49.801Z,98002.16
2022-11-16T00:09:22.925Z,97996.75
2022-11-16T00:11:51.813Z,97995.91
2022-11-16T00:14:21.051Z,97999.59
2022-11-16T00:16:48.010Z,97994.50
2022-11-16T00:19:14.857Z,97994.50
2022-11-16T00:21:42.998Z,97986.56
2022-11-16T00:24:15.090Z,97989.38
2022-11-16T00:26:44.582Z,97998.88
2022-11-16T00:29:20.930Z,97995.75
2022-11-16T00:31:49.754Z,98000.56
2022-11-16T00:34:17.277Z,97990.16
2022-11-16T00:36:44.709Z,97985.66
2022-11-16T00:39:16.292Z,97979.97
2022-11-16T00:41:46.840Z,97977.97
2022-11-16T00:44:14.487Z,97976.50
2022-11-16T00:46:41.967Z,97986.41
2022-11-16T00:49:08.867Z,97996.00
2022-11-16T00:51:36.543Z,97994.75
2022-11-16T00:54:05.231Z,97993.59
2022-11-16T00:56:35.018Z,98010.91
2022-11-16T00:59:01.933Z,98003.53
2022-11-16T01:01:29.061Z,97996.59
2022-11-16T01:03:55.959Z,97986.56
2022-11-16T01:06:23.621Z,97987.38
2022-11-16T01:08:51.106Z,97983.84
2022-11-16T01:11:36.904Z,97983.66
2022-11-16T01:14:06.515Z,97975.72
2022-11-16T01:16:33.863Z,97973.16
2022-11-16T01:19:01.041Z,97961.22
2022-11-16T01:21:28.559Z,97969.47
2022-11-16T01:23:59.201Z,97967.34
2022-11-16T01:26:26.378Z,97964.66
2022-11-16T01:28:53.356Z,97966.59
2022-11-16T01:31:21.317Z,97965.63
2022-11-16T01:33:49.825Z,97963.06
2022-11-16T01:36:22.202Z,97957.94
2022-11-16T01:38:50.704Z,97954.97
2022-11-16T01:41:24.098Z,97944.00
2022-11-16T01:44:32.273Z,97950.88
2022-11-16T01:47:12.430Z,97948.00
2022-11-16T01:49:47.742Z,97940.34
2022-11-16T01:52:22.909Z,97942.19
2022-11-16T01:54:52.984Z,97940.09
2022-11-16T01:57:27.958Z,97935.69
2022-11-16T02:00:06.589Z,97937.31
2022-11-16T02:02:57.112Z,97935.41
2022-11-16T02:06:22.855Z,97933.97
2022-11-16T02:09:48.166Z,97939.16
2022-11-16T02:12:21.425Z,97932.47
2022-11-16T02:15:04.126Z,97929.66
2022-11-16T02:18:02.517Z,97931.34
2022-11-16T02:20:55.086Z,97933.78
2022-11-16T02:23:49.400Z,97925.31
2022-11-16T02:26:56.120Z,97918.56
2022-11-16T02:29:35.689Z,97924.41
2022-11-16T02:32:25.396Z,97917.41
2022-11-16T02:35:00.494Z,97918.56
2022-11-16T02:37:33.451Z,97916.72
2022-11-16T02:40:04.939Z,97912.53
2022-11-16T02:42:58.293Z,97912.31
2022-11-16T02:45:31.499Z,97905.72
2022-11-16T02:48:08.673Z,97901.22
2022-11-16T02:50:37.090Z,97898.81
2022-11-16T02:53:04.256Z,97896.50
2022-11-16T02:55:36.293Z,97893.97
2022-11-16T02:58:09.629Z,97888.03
2022-11-16T03:00:46.897Z,97889.75
2022-11-16T03:03:42.365Z,97884.34
2022-11-16T03:06:15.182Z,97875.41
2022-11-16T03:09:05.948Z,97878.72
2022-11-16T03:11:57.607Z,97880.38
2022-11-16T03:14:30.938Z,97875.84
2022-11-16T03:16:59.179Z,97878.13
2022-11-16T03:19:36.656Z,97869.66
2022-11-16T03:22:12.853Z,97876.72
2022-11-16T03:24:41.094Z,97882.69
2022-11-16T03:27:25.698Z,97882.41
2022-11-16T03:29:58.728Z,97864.28
2022-11-16T03:32:33.754Z,97864.13
2022-11-16T03:35:13.100Z,97869.38
2022-11-16T03:37:41.918Z,97853.22
2022-11-16T03:40:12.834Z,97853.22
2022-11-16T03:42:42.411Z,97854.91
2022-11-16T03:45:11.281Z,97853.94
2022-11-16T03:47:38.138Z,97840.47
2022-11-16T03:50:06.462Z,97841.00
2022-11-16T03:52:34.639Z,97838.16
2022-11-16T03:55:01.786Z,97842.00
2022-11-16T03:57:29.246Z,97836.16
2022-11-16T03:59:59.051Z,97842.38
2022-11-16T04:02:26.884Z,97844.38
2022-11-16T04:05:14.961Z,97834.41
2022-11-16T04:08:02.465Z,97841.41
2022-11-16T04:10:48.272Z,97826.78
2022-11-16T04:13:36.830Z,97830.63
2022-11-16T04:16:22.387Z,97819.44
2022-11-16T04:19:07.968Z,97816.03
2022-11-16T04:21:59.480Z,97823.53
2022-11-16T04:24:37.110Z,97829.75
2022-11-16T04:27:27.209Z,97819.16
2022-11-16T04:29:57.438Z,97817.81
2022-11-16T04:32:43.951Z,97820.25
2022-11-16T04:35:29.546Z,97815.13
2022-11-16T04:37:57.866Z,97812.75
2022-11-16T04:40:31.939Z,97814.69
2022-11-16T04:43:03.979Z,97808.34
2022-11-16T04:45:56.333Z,97812.69
2022-11-16T04:48:27.235Z,97813.09
2022-11-16T04:50:55.240Z,97814.91
2022-11-16T04:53:27.097Z,97810.81
2022-11-16T04:56:12.555Z,97813.38
2022-11-16T04:58:40.751Z,97819.47
2022-11-16T05:01:09.294Z,97819.47
2022-11-16T05:03:36.281Z,97820.59
2022-11-16T05:06:03.580Z,97808.97
2022-11-16T05:08:31.116Z,97818.75
2022-11-16T05:10:59.539Z,97819.72
2022-11-16T05:13:28.265Z,97814.34
2022-11-16T05:15:55.120Z,97823.41
2022-11-16T05:18:22.824Z,97822.69
2022-11-16T05:21:02.629Z,97810.75
2022-11-16T05:23:55.429Z,97809.19
2022-11-16T05:26:27.269Z,97806.63
2022-11-16T05:28:54.973Z,97813.44
2022-11-16T05:31:21.795Z,97828.13
2022-11-16T05:33:49.342Z,97808.28
2022-11-16T05:36:16.781Z,97805.00
2022-11-16T05:38:44.089Z,97809.22
2022-11-16T05:41:11.922Z,97814.06
2022-11-16T05:43:39.081Z,97809.09
2022-11-16T05:46:12.386Z,97804.63
2022-11-16T05:48:40.705Z,97809.81
2022-11-16T05:51:07.648Z,97815.47
2022-11-16T05:53:35.096Z,97816.44
2022-11-16T05:56:02.491Z,97808.63
2022-11-16T05:58:32.793Z,97811.47
2022-11-16T06:01:00.790Z,97812.56
2022-11-16T06:03:31.578Z,97812.69
2022-11-16T06:05:59.752Z,97808.31
2022-11-16T06:08:29.027Z,97804.03
2022-11-16T06:11:03.055Z,97801.81
2022-11-16T06:13:31.205Z,97810.94
2022-11-16T06:16:01.330Z,97815.91
2022-11-16T06:18:30.010Z,97803.91
2022-11-16T06:20:57.927Z,97801.44
2022-11-16T06:23:25.724Z,97802.59
2022-11-16T06:25:57.415Z,97800.94
2022-11-16T06:28:27.602Z,97802.09
2022-11-16T06:30:55.193Z,97798.75
2022-11-16T06:33:30.807Z,97793.69
2022-11-16T06:36:02.613Z,97793.00
2022-11-16T06:38:29.632Z,97783.81
2022-11-16T06:40:59.074Z,97784.13
2022-11-16T06:43:28.364Z,97777.78
2022-11-16T06:45:58.248Z,97784.19
2022-11-16T06:48:25.696Z,97777.53
2022-11-16T06:50:53.758Z,97774.56
2022-11-16T06:53:27.536Z,97778.25
2022-11-16T06:56:00.354Z,97779.38
2022-11-16T06:58:29.654Z,97776.28
2022-11-16T07:00:56.500Z,97775.34
2022-11-16T07:03:23.749Z,97772.81
2022-11-16T07:05:50.866Z,97777.09
2022-11-16T07:08:18.766Z,97773.53
2022-11-16T07:10:46.026Z,97775.09
2022-11-16T07:13:13.013Z,97771.41
2022-11-16T07:15:39.998Z,97767.03
2022-11-16T07:18:08.486Z,97768.13
2022-11-16T07:20:38.836Z,97768.94
2022-11-16T07:23:07.137Z,97755.06
2022-11-16T07:25:38.233Z,97758.59
2022-11-16T07:28:06.408Z,97752.34
2022-11-16T07:30:34.285Z,97754.72
2022-11-16T07:33:07.010Z,97749.91
2022-11-16T07:36:06.713Z,97754.69
2022-11-16T07:38:34.120Z,97748.38
2022-11-16T07:41:01.735Z,97748.91
2022-11-16T07:43:37.584Z,97742.75
2022-11-16T07:48:59.346Z,97741.28
2022-11-16T07:51:55.329Z,97739.84
2022-11-16T07:54:45.083Z,97730.44
2022-11-16T07:57:12.945Z,97732.44
2022-11-16T07:59:41.515Z,97725.72
2022-11-16T08:02:11.080Z,97726.00
2022-11-16T08:04:40.111Z,97729.47
2022-11-16T08:07:08.747Z,97728.06
2022-11-16T08:09:42.109Z,97723.97
2022-11-16T08:12:13.350Z,97716.69
2022-11-16T08:14:40.358Z,97717.66
2022-11-16T08:17:08.461Z,97717.88
2022-11-16T08:19:36.838Z,97714.81
2022-11-16T08:22:04.021Z,97707.31
2022-11-16T08:24:33.477Z,97704.06
2022-11-16T08:27:00.398Z,97706.75
2022-11-16T08:29:27.479Z,97698.47
2022-11-16T08:31:57.261Z,97698.19
2022-11-16T08:34:24.526Z,97710.34
2022-11-16T08:36:56.389Z,97707.91
2022-11-16T08:39:29.593Z,97708.91
2022-11-16T08:41:56.727Z,97708.34
2022-11-16T08:44:23.698Z,97699.53
2022-11-16T08:46:53.358Z,97701.94
2022-11-16T08:49:49.736Z,97695.66
2022-11-16T08:52:19.007Z,97685.06
2022-11-16T08:54:46.372Z,97684.75
2022-11-16T08:57:13.671Z,97677.84
2022-11-16T08:59:42.514Z,97676.00
2022-11-16T09:02:13.128Z,97663.28
2022-11-16T09:04:40.080Z,97666.59
2022-11-16T09:07:06.945Z,97661.72
2022-11-16T09:09:33.776Z,97654.44
2022-11-16T09:12:00.646Z,97654.38
2022-11-16T09:14:29.107Z,97657.09
2022-11-16T09:16:56.004Z,97652.31
2022-11-16T09:19:22.886Z,97640.34
2022-11-16T09:21:50.495Z,97639.28
2022-11-16T09:24:17.736Z,97639.03
2022-11-16T09:26:44.557Z,97639.44
2022-11-16T09:29:14.259Z,97635.91
2022-11-16T09:31:41.933Z,97624.28
2022-11-16T09:34:08.823Z,97617.56
2022-11-16T09:36:35.801Z,97610.63
2022-11-16T09:39:29.599Z,97609.78
2022-11-16T09:41:56.690Z,97602.50
2022-11-16T09:44:41.845Z,97610.13
2022-11-16T09:47:24.596Z,97603.19
2022-11-16T09:50:03.022Z,97595.56
2022-11-16T09:52:33.999Z,97589.66
2022-11-16T09:55:16.851Z,97581.00
2022-11-16T09:57:45.286Z,97573.03
2022-11-16T10:00:18.079Z,97569.84
2022-11-16T10:02:48.744Z,97567.78
2022-11-16T10:05:22.631Z,97556.31
2022-11-16T10:07:55.034Z,97552.75
2022-11-16T10:10:34.963Z,97539.69
2022-11-16T10:13:22.246Z,97539.38
2022-11-16T10:16:15.483Z,97536.50
2022-11-16T10:18:44.984Z,97531.59
2022-11-16T10:21:11.805Z,97533.09
2022-11-16T10:23:57.047Z,97527.34
2022-11-16T10:26:29.715Z,97520.06
2022-11-16T10:29:05.410Z,97522.63
2022-11-16T10:31:51.980Z,97514.13
2022-11-16T10:34:24.581Z,97511.41
2022-11-16T10:36:57.870Z,97511.91
2022-11-16T10:39:27.546Z,97507.03
2022-11-16T10:41:59.364Z,97492.31
2022-11-16T10:44:57.735Z,97487.50
2022-11-16T10:47:35.898Z,97486.50
2022-11-16T10:50:18.001Z,97486.47
2022-11-16T10:52:44.872Z,97479.34
2022-11-16T10:55:15.857Z,97474.44
2022-11-16T10:58:02.006Z,97466.44
2022-11-16T11:00:36.484Z,97471.88
2022-11-16T11:03:03.563Z,97460.84
2022-11-16T11:05:31.155Z,97456.66
2022-11-16T11:08:07.412Z,97445.75
2022-11-16T11:10:37.717Z,97439.38
2022-11-16T11:13:10.560Z,97434.06
2022-11-16T11:15:38.756Z,97429.69
2022-11-16T11:18:23.595Z,97432.13
2022-11-16T11:20:55.238Z,97422.25
2022-11-16T11:23:25.119Z,97409.78
2022-11-16T11:26:00.391Z,97410.13
2022-11-16T11:28:33.723Z,97407.81
2022-11-16T11:31:12.236Z,97405.56
2022-11-16T11:33:48.385Z,97400.59
2022-11-16T11:36:35.737Z,97397.34
2022-11-16T11:39:05.648Z,97392.56
2022-11-16T11:41:38.058Z,97393.78
2022-11-16T11:44:14.000Z,97389.00
2022-11-16T11:47:35.116Z,97390.69
2022-11-16T11:49:39.959Z,97376.25
2022-11-16T11:52:17.338Z,97366.31
2022-11-16T11:54:49.521Z,97378.09
2022-11-16T11:57:23.365Z,97367.97
2022-11-16T11:59:53.110Z,97361.16
2022-11-16T12:02:31.985Z,97362.28
2022-11-16T12:05:23.434Z,97365.63
2022-11-16T12:08:06.483Z,97366.03
2022-11-16T12:10:51.140Z,97357.41
2022-11-16T12:13:17.929Z,97363.88
2022-11-16T12:16:12.654Z,97349.13
2022-11-16T12:18:53.895Z,97352.06
2022-11-16T12:21:53.373Z,97345.22
2022-11-16T12:24:37.651Z,97344.75
2022-11-16T12:27:29.139Z,97346.81
2022-11-16T12:30:11.077Z,97348.41
2022-11-16T12:33:01.804Z,97331.72
2022-11-16T12:35:59.902Z,97330.38
2022-11-16T12:38:35.998Z,97342.41
2022-11-16T12:41:52.560Z,97334.41
2022-11-16T12:44:36.683Z,97338.28
2022-11-16T12:47:31.817Z,97328.34
2022-11-16T12:50:31.568Z,97329.66
2022-11-16T12:53:13.862Z,97323.88
2022-11-16T12:55:43.948Z,97328.56
2022-11-16T12:58:20.923Z,97327.47
2022-11-16T13:00:51.787Z,97330.00
2022-11-16T13:03:38.336Z,97324.03
2022-11-16T13:06:09.888Z,97319.25
2022-11-16T13:08:40.881Z,97319.13
2022-11-16T13:11:29.213Z,97314.34
2022-11-16T13:14:00.518Z,97318.00
2022-11-16T13:16:29.115Z,97319.91
2022-11-16T13:18:57.449Z,97304.31
2022-11-16T13:21:52.383Z,97304.06
2022-11-16T13:24:38.216Z,97304.41
2022-11-16T13:27:27.394Z,97301.69
2022-11-16T13:30:06.504Z,97296.97
2022-11-16T13:32:34.907Z,97299.38
2022-11-16T13:35:05.572Z,97291.31
2022-11-16T13:37:46.249Z,97288.31
2022-11-16T13:40:32.153Z,97292.00
2022-11-16T13:43:11.076Z,97288.16
2022-11-16T13:45:49.764Z,97292.91
2022-11-16T13:48:25.113Z,97279.53
2022-11-16T13:50:58.603Z,97283.78
2022-11-16T13:56:28.962Z,97277.13
2022-11-16T13:58:58.359Z,97270.38
2022-11-16T14:01:27.616Z,97267.03
2022-11-16T14:04:35.523Z,97275.69
2022-11-16T14:07:03.058Z,97271.50
2022-11-16T14:09:59.400Z,97272.41
2022-11-16T14:12:38.530Z,97272.72
2022-11-16T14:15:19.199Z,97259.72
2022-11-16T14:18:01.258Z,97253.28
2022-11-16T14:20:30.826Z,97255.19
2022-11-16T14:23:07.284Z,97258.22
2022-11-16T14:25:53.119Z,97263.31
2022-11-16T14:29:01.126Z,97261.63
2022-11-16T14:31:49.922Z,97258.28
2022-11-16T14:34:41.771Z,97254.03
2022-11-16T14:37:30.091Z,97255.34
2022-11-16T14:40:18.562Z,97256.06
2022-11-16T14:43:15.515Z,97255.34
2022-11-16T14:45:41.443Z,97262.97
2022-11-16T14:48:20.096Z,97253.34
2022-11-16T14:51:05.921Z,97261.47
2022-11-16T14:53:37.100Z,97261.31
2022-11-16T14:56:13.278Z,97254.91
2022-11-16T14:58:50.061Z,97242.41
2022-11-16T15:01:18.528Z,97251.03
2022-11-16T15:04:09.391Z,97247.66
2022-11-16T15:06:42.341Z,97256.78
2022-11-16T15:09:17.373Z,97252.91
2022-11-16T15:12:06.947Z,97242.44
2022-11-16T15:14:39.586Z,97231.44
2022-11-16T15:17:07.480Z,97234.81
2022-11-16T15:19:34.497Z,97222.13
2022-11-16T15:22:03.392Z,97220.97
2022-11-16T15:24:33.434Z,97234.84
2022-11-16T15:27:06.599Z,97231.28
2022-11-16T15:29:36.165Z,97227.06
2022-11-16T15:32:03.460Z,97225.38
2022-11-16T15:34:31.473Z,97233.13
2022-11-16T15:36:58.385Z,97226.06
2022-11-16T15:39:32.535Z,97227.91
2022-11-16T15:42:03.796Z,97219.97
2022-11-16T15:44:33.948Z,97219.47
2022-11-16T15:47:03.148Z,97224.38
2022-11-16T15:49:35.812Z,97219.78
2022-11-16T15:52:03.256Z,97216.59
2022-11-16T15:54:51.490Z,97213.53
2022-11-16T15:57:21.028Z,97216.25
2022-11-16T15:59:50.645Z,97211.72
2022-11-16T16:02:29.737Z,97218.13
2022-11-16T16:04:56.941Z,97214.41
2022-11-16T16:07:37.102Z,97215.09
2022-11-16T16:10:19.292Z,97222.84
2022-11-16T16:12:54.828Z,97219.97
2022-11-16T16:15:26.681Z,97221.00
2022-11-16T16:17:54.659Z,97212.06
2022-11-16T16:20:24.703Z,97204.44
2022-11-16T16:22:52.354Z,97201.41
2022-11-16T16:25:34.242Z,97216.25
2022-11-16T16:28:01.384Z,97218.78
2022-11-16T16:30:30.540Z,97217.78
2022-11-16T16:32:57.426Z,97216.41
2022-11-16T16:35:25.797Z,97210.66
2022-11-16T16:38:01.047Z,97215.75
2022-11-16T16:40:29.238Z,97213.72
2022-11-16T16:42:56.990Z,97218.25
2022-11-16T16:45:36.017Z,97212.50
2022-11-16T16:48:03.862Z,97201.53
2022-11-16T16:50:30.782Z,97196.13
2022-11-16T16:52:58.656Z,97204.72
2022-11-16T16:55:26.059Z,97208.25
2022-11-16T16:57:58.265Z,97211.31
2022-11-16T17:00:25.466Z,97199.19
2022-11-16T17:02:52.597Z,97189.72
2022-11-16T17:05:20.142Z,97194.81
2022-11-16T17:07:47.010Z,97200.88
2022-11-16T17:10:13.918Z,97204.25
2022-11-16T17:12:40.773Z,97200.56
2022-11-16T17:15:08.437Z,97196.81
2022-11-16T17:17:37.329Z,97204.25
2022-11-16T17:20:06.178Z,97198.84
2022-11-16T17:22:34.397Z,97204.41
2022-11-16T17:25:01.195Z,97200.03
2022-11-16T17:27:28.093Z,97197.66
2022-11-16T17:29:54.885Z,97198.34
2022-11-16T17:32:21.807Z,97202.91
2022-11-16T17:34:48.691Z,97203.22
2022-11-16T17:37:15.989Z,97215.22
2022-11-16T17:39:43.081Z,97207.97
2022-11-16T17:42:09.963Z,97202.72
2022-11-16T17:44:36.885Z,97201.91
2022-11-16T17:47:03.812Z,97202.22
2022-11-16T17:49:31.123Z,97192.25
2022-11-16T17:51:58.484Z,97197.66
2022-11-16T17:54:25.449Z,97201.22
2022-11-16T17:56:52.873Z,97195.97
2022-11-16T17:59:20.625Z,97189.03
2022-11-16T18:01:49.903Z,97186.19
2022-11-16T18:04:16.746Z,97196.16
2022-11-16T18:06:43.873Z,97187.38
2022-11-16T18:09:11.241Z,97179.59
2022-11-16T18:11:39.806Z,97179.59
2022-11-16T18:14:06.740Z,97173.34
2022-11-16T18:16:33.688Z,97170.81
2022-11-16T18:19:03.315Z,97170.81
2022-11-16T18:21:31.364Z,97176.22
2022-11-16T18:24:01.498Z,97168.28
2022-11-16T18:26:28.361Z,97157.31
2022-11-16T18:28:56.065Z,97163.22
2022-11-16T18:31:24.450Z,97168.28
2022-11-16T18:33:52.512Z,97161.19
2022-11-16T18:36:21.382Z,97157.66
2022-11-16T18:38:48.675Z,97157.97
2022-11-16T18:41:21.365Z,97153.44
2022-11-16T18:43:51.411Z,97150.53
2022-11-16T18:46:24.038Z,97149.53
2022-11-16T18:48:51.858Z,97146.69
2022-11-16T18:51:20.125Z,97149.53
2022-11-16T18:53:47.358Z,97151.91
2022-11-16T18:56:14.994Z,97140.97
2022-11-16T18:58:50.486Z,97150.91
2022-11-16T19:01:20.541Z,97146.88
2022-11-16T19:03:48.269Z,97130.66
2022-11-16T19:06:17.213Z,97127.97
2022-11-16T19:08:49.071Z,97122.38
2022-11-16T19:11:21.578Z,97140.28
2022-11-16T19:13:53.670Z,97136.75
2022-11-16T19:16:20.856Z,97126.44
2022-11-16T19:18:48.057Z,97127.63
2022-11-16T19:21:20.039Z,97135.19
2022-11-16T19:23:52.841Z,97129.13
2022-11-16T19:26:22.910Z,97128.13
2022-11-16T19:28:51.091Z,97121.34
2022-11-16T19:31:30.724Z,97124.94
2022-11-16T19:34:02.888Z,97129.66
2022-11-16T19:36:31.714Z,97125.41
2022-11-16T19:38:58.777Z,97128.28
2022-11-16T19:41:27.042Z,97128.44
2022-11-16T19:43:59.955Z,97135.19
2022-11-16T19:46:32.094Z,97128.28
2022-11-16T19:48:59.610Z,97128.63
2022-11-16T19:51:34.038Z,97130.63
2022-11-16T19:54:02.457Z,97132.66
2022-11-16T19:56:29.450Z,97136.19
2022-11-16T19:58:56.718Z,97122.88
2022-11-16T20:01:27.930Z,97121.19
2022-11-16T20:03:58.896Z,97119.34
2022-11-16T20:06:34.252Z,97115.44
2022-11-16T20:09:08.841Z,97112.75
2022-11-16T20:11:38.064Z,97104.31
2022-11-16T20:14:07.189Z,97108.53
2022-11-16T20:16:39.083Z,97102.97
2022-11-16T20:19:09.100Z,97115.47
2022-11-16T20:21:41.303Z,97102.63
2022-11-16T20:24:12.384Z,97096.25
2022-11-16T20:26:45.453Z,97096.91
2022-11-16T20:29:13.944Z,97097.91
2022-11-16T20:31:43.189Z,97097.91
2022-11-16T20:34:16.330Z,97102.31
2022-11-16T20:36:46.025Z,97091.50
2022-11-16T20:39:15.370Z,97098.75
2022-11-16T20:41:44.006Z,97106.84
2022-11-16T20:44:16.503Z,97099.09
2022-11-16T20:46:45.227Z,97100.44
2022-11-16T20:49:13.028Z,97108.88
2022-11-16T20:51:40.286Z,97115.47
2022-11-16T20:54:07.319Z,97108.88
2022-11-16T20:56:34.823Z,97117.50
2022-11-16T20:59:01.889Z,97109.03
2022-11-16T21:01:31.963Z,97103.66
2022-11-16T21:04:01.519Z,97104.84
2022-11-16T21:06:29.475Z,97091.34
2022-11-16T21:08:57.365Z,97102.63
2022-11-16T21:11:27.249Z,97113.78
2022-11-16T21:14:13.687Z,97097.88
2022-11-16T21:16:41.378Z,97114.53
2022-11-16T21:19:08.380Z,97108.78
2022-11-16T21:21:35.476Z,97114.16
2022-11-16T21:24:02.519Z,97108.94
2022-11-16T21:26:32.121Z,97107.91
2022-11-16T21:29:00.517Z,97098.78
2022-11-16T21:31:30.086Z,97097.44
2022-11-16T21:33:58.572Z,97095.75
2022-11-16T21:36:27.033Z,97099.47
2022-11-16T21:38:55.047Z,97095.22
2022-11-16T21:41:23.673Z,97093.41
2022-11-16T21:43:51.035Z,97085.06
2022-11-16T21:46:20.377Z,97097.34
2022-11-16T21:48:48.324Z,97104.44
2022-11-16T21:51:17.987Z,97105.59
2022-11-16T21:53:45.213Z,97101.03
2022-11-16T21:56:14.258Z,97090.19
2022-11-16T21:58:42.082Z,97098.25
2022-11-16T22:01:09.952Z,97101.63
2022-11-16T22:03:37.468Z,97098.94
2022-11-16T22:06:25.482Z,97094.53
2022-11-16T22:08:53.404Z,97093.84
2022-11-16T22:11:22.349Z,97093.56
2022-11-16T22:13:50.171Z,97100.50
2022-11-16T22:16:19.418Z,97096.47
2022-11-16T22:18:46.260Z,97095.81
2022-11-16T22:21:13.274Z,97100.97
2022-11-16T22:23:40.456Z,97094.44
2022-11-16T22:26:12.584Z,97096.69
2022-11-16T22:28:39.782Z,97086.50
2022-11-16T22:31:11.759Z,97082.03
2022-11-16T22:33:39.308Z,97073.81
2022-11-16T22:36:10.051Z,97077.19
2022-11-16T22:38:37.306Z,97076.88
2022-11-16T22:41:04.508Z,97073.50
2022-11-16T22:43:31.986Z,97078.28
2022-11-16T22:46:00.387Z,97076.94
2022-11-16T22:48:34.918Z,97067.81
2022-11-16T22:51:22.509Z,97064.59
2022-11-16T22:53:54.779Z,97058.94
2022-11-16T22:56:22.609Z,97056.75
2022-11-16T22:58:49.688Z,97059.75
2022-11-16T23:01:16.944Z,97059.97
2022-11-16T23:03:43.964Z,97064.84
2022-11-16T23:06:10.944Z,97054.56
2022-11-16T23:08:40.046Z,97052.09
2022-11-16T23:11:30.776Z,97050.38
2022-11-16T23:14:16.624Z,97046.50
2022-11-16T23:16:44.215Z,97042.47
2022-11-16T23:19:31.805Z,97036.88
2022-11-16T23:22:17.550Z,97037.41
2022-11-16T23:25:03.459Z,97039.78
2022-11-16T23:27:51.888Z,97043.97
2022-11-16T23:30:18.907Z,97047.63
2022-11-16T23:32:45.967Z,97027.59
2022-11-16T23:35:13.848Z,97038.56
2022-11-16T23:37:56.583Z,97039.22
2022-11-16T23:40:32.319Z,97024.59
2022-11-16T23:43:17.690Z,97013.66
2022-11-16T23:45:51.130Z,97003.41
2022-11-16T23:48:19.722Z,97019.03
2022-11-16T23:50:47.048Z,97017.50
2022-11-16T23:53:14.520Z,97015.81
2022-11-16T23:55:41.941Z,96999.97
2022-11-16T23:58:14.742Z,96994.59
